2R3 weather

Island Lake Seaplane Base
Kenai, Alaska, United States

Public forecast

Using degrees Fahrenheit for public forecast. Weather courtesy of forecast.io.

METAR (pilot weather report)

Closest report is Kenai Municipal Airport, 8.1 nm (15.0 km) SSE. Retrieved 2019/05/25 21:53 UTC (1 hour ago):

PAEN 252153Z 07005KT 10SM OVC065 10/06 A3003

TAF (pilot weather forecast)

Closest forecast is Kenai Municipal Airport, 8.1 nm (15.0 km) SSE. Retrieved 2019/05/25 18:27 UTC (4 hours ago):

TAF PAEN 251725Z 2518/2618 03008KT P6SM OVC100 FM252100 03006KT P6SM VCSH SCT030 OVC060 FM260600 03008KT 6SM -RA OVC030 FM261200 03011KT P6SM -SHRA OVC035